Time;durP1;ratioP1;P1;durP2;ratioP2;P2;SDS_P1;SDS_P2;PMS_P1;PMS_P2;Temp;Humidity;BMP_temperature;BMP_pressure;BME280_temperature;BME280_humidity;BME280_pressure;Samples;Min_cycle;Max_cycle;Signal;HPM_P1;HPM_P2
2022/11/03 00:01:57;;;;;;;5.60;1.55;;;11.30;99.90;;;;;;5053445;28;20045;-82
2022/11/03 00:04:22;;;;;;;5.97;1.10;;;11.30;99.90;;;;;;5033340;28;20372;-82
2022/11/03 00:06:51;;;;;;;5.25;1.25;;;11.20;99.90;;;;;;5053025;28;20045;-82
2022/11/03 00:09:18;;;;;;;4.53;1.27;;;11.20;99.90;;;;;;5036008;28;20068;-81
2022/11/03 00:11:45;;;;;;;5.07;1.08;;;11.20;99.90;;;;;;5035938;28;20045;-82
2022/11/03 00:14:12;;;;;;;3.70;1.10;;;11.30;99.90;;;;;;5036613;28;20057;-85
2022/11/03 00:16:38;;;;;;;4.65;1.50;;;11.30;99.90;;;;;;5052975;28;20134;-84
2022/11/03 00:19:05;;;;;;;7.20;1.73;;;11.30;99.90;;;;;;5052355;28;20372;-85
2022/11/03 00:21:31;;;;;;;2.47;1.30;;;11.20;99.90;;;;;;5020227;28;20033;-85
2022/11/03 00:23:57;;;;;;;5.15;1.40;;;11.20;99.90;;;;;;5036300;28;20045;-85
2022/11/03 00:26:23;;;;;;;5.90;1.10;;;11.30;99.90;;;;;;5036507;28;20040;-85
2022/11/03 00:28:51;;;;;;;5.78;1.67;;;11.30;99.90;;;;;;5052786;28;20128;-85
2022/11/03 00:31:23;;;;;;;6.13;1.27;;;11.30;99.90;;;;;;5052669;28;20056;-82
2022/11/03 00:33:50;;;;;;;3.42;1.10;;;11.20;99.90;;;;;;5052218;28;20124;-82
2022/11/03 00:36:21;;;;;;;5.80;1.20;;;11.20;99.90;;;;;;5052413;28;20116;-82
2022/11/03 00:38:47;;;;;;;7.50;1.40;;;11.20;99.90;;;;;;5036084;28;20041;-82
2022/11/03 00:41:14;;;;;;;8.50;1.23;;;11.20;99.90;;;;;;5019388;28;20441;-81
2022/11/03 00:43:40;;;;;;;8.75;1.67;;;11.10;99.90;;;;;;5019965;28;20049;-81
2022/11/03 00:46:07;;;;;;;7.15;1.77;;;11.10;99.90;;;;;;5055327;28;20375;-81
2022/11/03 00:48:34;;;;;;;9.70;1.95;;;11.10;99.90;;;;;;5056594;28;20111;-81
2022/11/03 00:51:29;;;;;;;4.18;1.20;;;11.10;99.90;;;;;;5056356;28;20082;-82
2022/11/03 00:54:00;;;;;;;6.65;1.70;;;11.00;99.90;;;;;;5042731;28;20067;-82
2022/11/03 00:56:31;;;;;;;5.63;1.30;;;10.90;99.90;;;;;;5056002;28;20041;-82
2022/11/03 00:58:59;;;;;;;4.95;2.05;;;10.90;99.90;;;;;;5039581;28;20040;-82
2022/11/03 01:01:27;;;;;;;6.15;2.42;;;10.90;99.90;;;;;;5056214;28;20076;-81
2022/11/03 01:06:52;;;;;;;5.82;1.40;;;10.90;99.90;;;;;;5056107;28;20049;-81
2022/11/03 01:09:39;;;;;;;4.78;1.52;;;10.90;99.90;;;;;;5056100;28;20123;-82
2022/11/03 01:12:17;;;;;;;9.40;1.52;;;10.90;99.90;;;;;;5055901;28;20056;-81
2022/11/03 01:14:48;;;;;;;5.78;1.98;;;10.80;99.90;;;;;;5039228;28;20045;-81
2022/11/03 01:17:19;;;;;;;4.75;1.35;;;10.80;99.90;;;;;;5056106;28;20372;-82
2022/11/03 01:19:45;;;;;;;2.83;1.10;;;10.70;99.90;;;;;;5055842;28;20041;-81
2022/11/03 01:22:12;;;;;;;5.85;1.77;;;10.70;99.90;;;;;;5056460;28;20029;-81
2022/11/03 01:24:42;;;;;;;6.03;1.88;;;10.60;99.90;;;;;;5055562;28;20048;-81
2022/11/03 01:27:13;;;;;;;9.93;2.03;;;10.70;99.90;;;;;;5039133;28;20044;-81
2022/11/03 01:29:39;;;;;;;8.88;1.80;;;10.60;99.90;;;;;;5039453;28;20041;-81
2022/11/03 01:32:05;;;;;;;3.42;1.27;;;10.60;99.90;;;;;;5055261;28;20383;-82
2022/11/03 01:34:31;;;;;;;3.42;2.20;;;10.50;99.90;;;;;;5039248;28;20037;-81
2022/11/03 01:36:56;;;;;;;9.45;1.73;;;10.50;99.90;;;;;;5038683;28;20195;-81
2022/11/03 01:39:22;;;;;;;3.30;1.13;;;10.50;99.90;;;;;;5055654;28;20359;-81
2022/11/03 01:41:50;;;;;;;5.68;1.50;;;10.20;99.90;;;;;;5022239;28;20119;-81
2022/11/03 01:44:15;;;;;;;3.38;1.13;;;10.40;99.90;;;;;;5055026;28;20115;-81
2022/11/03 01:46:53;;;;;;;6.93;3.03;;;10.40;99.90;;;;;;5055260;28;20614;-81
2022/11/03 01:49:29;;;;;;;4.95;1.48;;;10.40;99.90;;;;;;5055978;28;20455;-81
2022/11/03 01:52:04;;;;;;;5.25;1.27;;;10.40;99.90;;;;;;5055340;28;20068;-81
2022/11/03 01:54:31;;;;;;;7.00;1.50;;;10.30;99.90;;;;;;5055238;28;20378;-82
2022/11/03 01:56:58;;;;;;;3.13;1.35;;;10.40;99.90;;;;;;5038067;28;20131;-82
2022/11/03 01:59:25;;;;;;;8.18;1.25;;;10.40;99.90;;;;;;5039047;28;20372;-82
2022/11/03 02:01:51;;;;;;;7.00;1.30;;;10.30;99.90;;;;;;5055191;28;20690;-82
2022/11/03 02:04:28;;;;;;;7.75;1.42;;;10.20;99.90;;;;;;5055605;28;20052;-82
2022/11/03 02:07:06;;;;;;;4.35;0.90;;;10.20;99.90;;;;;;5035638;28;20045;-82
2022/11/03 02:09:32;;;;;;;4.88;1.25;;;10.10;99.90;;;;;;5042779;28;20045;-82
2022/11/03 02:12:07;;;;;;;7.15;1.35;;;10.10;99.90;;;;;;5038093;28;20037;-81
2022/11/03 02:14:48;;;;;;;4.72;2.13;;;10.00;99.90;;;;;;5022656;28;20057;-81
2022/11/03 02:17:16;;;;;;;4.75;1.40;;;10.00;99.90;;;;;;5037921;28;20056;-81
2022/11/03 02:19:47;;;;;;;7.85;1.83;;;9.90;99.90;;;;;;5054816;28;20043;-81
2022/11/03 02:22:50;;;;;;;6.80;1.60;;;9.90;99.90;;;;;;5054446;28;20036;-81
2022/11/03 02:25:39;;;;;;;10.77;2.53;;;9.90;99.90;;;;;;5054870;28;20506;-81
2022/11/03 02:28:05;;;;;;;5.72;1.50;;;9.90;99.90;;;;;;5038378;28;20041;-81
2022/11/03 02:30:38;;;;;;;4.32;1.30;;;9.90;99.90;;;;;;5037776;28;20041;-81
2022/11/03 02:33:11;;;;;;;3.53;1.40;;;9.80;99.90;;;;;;5054233;28;20470;-81
2022/11/03 02:35:50;;;;;;;5.47;1.58;;;9.90;99.90;;;;;;5037631;28;20052;-81
2022/11/03 02:38:18;;;;;;;9.50;1.65;;;9.90;99.90;;;;;;5054630;28;20036;-81
2022/11/03 02:40:49;;;;;;;5.45;1.67;;;9.90;99.90;;;;;;5054179;28;20044;-81
2022/11/03 02:43:17;;;;;;;3.10;1.23;;;10.00;99.90;;;;;;5054437;28;20123;-81
2022/11/03 02:45:46;;;;;;;6.03;1.33;;;10.00;99.90;;;;;;5037899;28;20079;-82
2022/11/03 02:48:15;;;;;;;4.75;1.83;;;9.90;99.90;;;;;;5037454;28;20546;-82
2022/11/03 02:50:40;;;;;;;6.43;2.28;;;10.00;99.90;;;;;;5038239;28;20063;-82
2022/11/03 02:53:08;;;;;;;5.85;1.70;;;10.00;99.90;;;;;;5054050;28;20075;-82
2022/11/03 02:55:39;;;;;;;6.47;1.50;;;10.00;99.90;;;;;;5054427;28;20072;-82
2022/11/03 02:58:47;;;;;;;7.75;1.50;;;10.10;99.90;;;;;;5054503;28;20049;-82
2022/11/03 03:01:46;;;;;;;8.35;1.77;;;10.10;99.90;;;;;;5053597;28;20119;-85
2022/11/03 03:04:28;;;;;;;2.05;1.35;;;10.00;99.90;;;;;;5037987;28;20053;-85
2022/11/03 03:07:25;;;;;;;5.95;1.40;;;10.10;99.90;;;;;;5037494;28;20048;-85
2022/11/03 03:10:15;;;;;;;3.65;1.10;;;10.10;99.90;;;;;;5050436;28;20049;-85
2022/11/03 03:12:49;;;;;;;6.47;1.52;;;10.10;99.90;;;;;;5034281;28;20053;-85
2022/11/03 03:15:17;;;;;;;6.05;1.45;;;10.10;99.90;;;;;;5033915;28;20541;-84
2022/11/03 03:17:53;;;;;;;8.20;1.45;;;10.10;99.90;;;;;;5034158;28;20455;-82
2022/11/03 03:20:24;;;;;;;8.40;1.77;;;10.20;99.90;;;;;;5033608;28;20521;-82
2022/11/03 03:22:49;;;;;;;3.53;0.90;;;10.10;99.90;;;;;;5053934;28;20044;-82
2022/11/03 03:25:28;;;;;;;7.38;1.50;;;10.10;99.90;;;;;;5037607;28;20594;-82
2022/11/03 03:28:10;;;;;;;4.20;1.90;;;10.10;99.90;;;;;;5053414;28;20045;-82
2022/11/03 03:30:37;;;;;;;7.75;1.40;;;10.10;99.90;;;;;;5036578;28;20088;-82
2022/11/03 03:33:05;;;;;;;7.18;1.45;;;10.00;99.90;;;;;;5053047;28;20067;-82
2022/11/03 03:35:33;;;;;;;6.60;1.40;;;10.00;99.90;;;;;;5053357;28;20068;-82
2022/11/03 03:38:03;;;;;;;5.22;1.40;;;9.90;99.90;;;;;;5053180;28;20040;-82
2022/11/03 03:40:36;;;;;;;3.45;1.55;;;9.90;99.90;;;;;;5052918;28;20039;-82
2022/11/03 03:43:04;;;;;;;5.18;1.50;;;9.80;99.90;;;;;;5053220;28;20144;-82
2022/11/03 03:45:31;;;;;;;5.07;1.98;;;9.80;99.90;;;;;;5054871;28;20037;-82
2022/11/03 03:47:57;;;;;;;4.88;1.42;;;9.80;99.90;;;;;;5032130;28;20155;-82
2022/11/03 03:50:26;;;;;;;8.55;1.60;;;9.90;99.90;;;;;;5036683;28;20067;-82
2022/11/03 03:53:05;;;;;;;5.20;1.27;;;9.90;99.90;;;;;;5052150;28;20120;-81
2022/11/03 03:55:42;;;;;;;5.57;1.60;;;9.80;99.90;;;;;;5052592;28;20055;-81
2022/11/03 03:58:12;;;;;;;7.10;1.60;;;9.80;99.90;;;;;;5052493;28;20098;-81
2022/11/03 04:00:38;;;;;;;3.25;1.25;;;9.70;99.90;;;;;;5052815;28;20044;-81
2022/11/03 04:03:06;;;;;;;7.88;1.92;;;9.70;99.90;;;;;;5036176;28;20047;-81
2022/11/03 04:05:32;;;;;;;6.07;1.48;;;9.70;99.90;;;;;;5052706;28;20483;-81
2022/11/03 04:07:58;;;;;;;4.55;1.30;;;9.90;99.90;;;;;;5049207;28;20394;-81
2022/11/03 04:10:24;;;;;;;4.72;1.42;;;9.70;99.90;;;;;;5048440;28;20115;-81
2022/11/03 04:23:50;;;;;;;5.88;1.70;;;9.60;99.90;;;;;;5041231;28;20071;-82
2022/11/03 04:26:18;;;;;;;7.43;1.80;;;9.60;99.90;;;;;;5072703;28;20048;-82
2022/11/03 04:28:44;;;;;;;6.18;1.70;;;9.60;99.90;;;;;;5022997;28;20486;-82
2022/11/03 04:31:15;;;;;;;6.18;1.30;;;9.60;99.90;;;;;;5039535;28;20071;-82
2022/11/03 04:33:42;;;;;;;8.40;2.17;;;10.10;99.90;;;;;;5038658;28;20046;-82
2022/11/03 04:36:15;;;;;;;6.93;1.35;;;9.80;99.90;;;;;;5039249;28;20079;-82
2022/11/03 04:38:42;;;;;;;2.65;1.60;;;9.80;99.90;;;;;;5039639;28;20367;-82
2022/11/03 04:41:17;;;;;;;5.57;1.20;;;9.70;99.90;;;;;;5073774;28;20434;-85
2022/11/03 04:43:45;;;;;;;7.15;1.58;;;9.80;99.90;;;;;;5073989;28;20052;-84
2022/11/03 04:46:14;;;;;;;2.60;1.20;;;9.80;99.90;;;;;;5056522;28;20083;-85
2022/11/03 04:48:40;;;;;;;6.38;1.20;;;9.70;99.90;;;;;;5056005;28;20040;-85
2022/11/03 04:51:18;;;;;;;3.45;1.50;;;10.10;99.90;;;;;;5023393;28;20094;-84
2022/11/03 04:53:55;;;;;;;7.05;1.90;;;9.70;99.90;;;;;;5055810;28;20049;-84
2022/11/03 04:56:23;;;;;;;7.55;1.67;;;9.70;99.90;;;;;;5039344;28;20033;-85
2022/11/03 04:58:50;;;;;;;7.03;1.90;;;9.70;99.90;;;;;;5039087;28;20048;-82
2022/11/03 05:01:21;;;;;;;3.75;1.20;;;9.80;99.90;;;;;;5055738;28;20047;-82
2022/11/03 05:03:49;;;;;;;4.35;1.27;;;9.80;99.90;;;;;;5039519;28;20505;-82
2022/11/03 05:06:18;;;;;;;8.07;1.90;;;9.70;99.90;;;;;;5055038;28;20047;-82
2022/11/03 05:08:54;;;;;;;4.60;1.67;;;9.70;99.90;;;;;;5038829;28;20075;-82
2022/11/03 05:11:33;;;;;;;5.78;2.00;;;9.70;99.90;;;;;;5055521;28;20052;-82
2022/11/03 05:14:13;;;;;;;3.50;1.58;;;9.80;99.90;;;;;;5035247;28;20445;-82
2022/11/03 05:16:39;;;;;;;5.45;1.23;;;9.80;99.90;;;;;;5036503;28;20049;-82
2022/11/03 05:19:19;;;;;;;3.65;1.88;;;9.80;99.90;;;;;;5019402;28;20044;-82
2022/11/03 05:21:48;;;;;;;3.90;1.10;;;9.90;99.90;;;;;;5019338;28;20367;-82
2022/11/03 05:24:15;;;;;;;10.48;2.03;;;10.00;99.90;;;;;;5036910;28;20040;-82
2022/11/03 05:26:42;;;;;;;4.95;2.60;;;9.90;99.90;;;;;;5072042;28;20497;-82
2022/11/03 05:29:18;;;;;;;8.80;1.80;;;9.80;99.90;;;;;;5055782;28;20040;-82
2022/11/03 05:31:47;;;;;;;6.18;2.00;;;9.80;99.90;;;;;;5023257;28;20141;-82
2022/11/03 05:34:41;;;;;;;4.95;1.38;;;9.80;99.90;;;;;;5042240;28;20081;-82
2022/11/03 05:37:25;;;;;;;6.32;1.60;;;9.90;99.90;;;;;;5059321;28;20366;-83
2022/11/03 05:39:52;;;;;;;5.88;1.77;;;9.90;99.90;;;;;;5059222;28;20040;-82
2022/11/03 05:42:21;;;;;;;7.10;1.80;;;10.00;99.90;;;;;;5058507;28;20681;-82
2022/11/03 05:44:49;;;;;;;4.63;1.42;;;10.00;99.90;;;;;;5041903;28;20040;-82
2022/11/03 05:47:20;;;;;;;5.50;1.63;;;10.10;99.90;;;;;;5041726;28;20393;-81
2022/11/03 05:49:52;;;;;;;6.90;1.80;;;10.00;99.90;;;;;;5058968;28;20405;-82
2022/11/03 05:52:26;;;;;;;3.17;1.15;;;10.00;99.90;;;;;;5021829;28;20041;-81
2022/11/03 05:54:54;;;;;;;3.28;1.50;;;10.00;99.90;;;;;;5039161;28;20131;-81
2022/11/03 05:57:20;;;;;;;7.88;1.83;;;10.00;99.90;;;;;;5041233;28;20047;-82
2022/11/03 05:59:48;;;;;;;7.38;2.00;;;8.60;99.90;;;;;;5041854;28;20037;-81
2022/11/03 06:02:30;;;;;;;3.03;1.35;;;10.00;99.90;;;;;;5041998;28;20037;-81
2022/11/03 06:04:58;;;;;;;2.67;1.10;;;9.90;99.90;;;;;;5057996;28;20378;-81
2022/11/03 06:07:29;;;;;;;5.45;1.67;;;10.00;99.90;;;;;;5074651;28;20126;-81
2022/11/03 06:09:55;;;;;;;6.05;1.48;;;10.10;99.90;;;;;;5057705;28;20064;-81
2022/11/03 06:12:22;;;;;;;4.63;1.38;;;10.10;99.90;;;;;;5046230;28;20064;-81
2022/11/03 06:14:48;;;;;;;5.28;1.30;;;10.10;99.90;;;;;;5054440;28;20048;-81
2022/11/03 06:17:25;;;;;;;6.28;1.33;;;10.10;99.90;;;;;;5055576;28;20479;-81
2022/11/03 06:19:57;;;;;;;7.78;1.45;;;10.50;99.90;;;;;;5054279;28;20049;-81
2022/11/03 06:22:24;;;;;;;3.92;1.40;;;10.30;99.90;;;;;;5055081;28;20033;-82
2022/11/03 06:25:25;;;;;;;3.97;1.33;;;10.20;99.90;;;;;;5055286;28;20036;-82
2022/11/03 06:27:52;;;;;;;8.35;1.58;;;10.20;99.90;;;;;;5035306;28;20052;-82
2022/11/03 06:30:26;;;;;;;4.35;1.27;;;10.20;99.90;;;;;;5041255;28;20038;-82
2022/11/03 06:32:56;;;;;;;4.95;1.50;;;10.20;99.90;;;;;;5036176;28;20042;-83
2022/11/03 06:35:22;;;;;;;9.32;1.65;;;10.20;99.90;;;;;;5051563;28;20045;-82
2022/11/03 06:37:49;;;;;;;6.15;1.30;;;10.20;99.90;;;;;;5049730;28;20043;-81
2022/11/03 06:40:14;;;;;;;5.57;1.23;;;10.20;99.90;;;;;;5053727;28;20467;-81
2022/11/03 06:42:40;;;;;;;6.80;1.60;;;10.20;99.90;;;;;;5037191;28;20045;-81
2022/11/03 06:45:22;;;;;;;6.32;2.10;;;10.20;99.90;;;;;;5054139;28;20434;-81
2022/11/03 06:47:48;;;;;;;6.32;1.45;;;10.20;99.90;;;;;;5054085;28;20045;-81
2022/11/03 06:50:31;;;;;;;4.38;1.30;;;10.20;99.90;;;;;;5053981;28;20060;-81
2022/11/03 06:53:00;;;;;;;5.43;1.50;;;10.30;99.90;;;;;;5054647;28;20052;-81
2022/11/03 06:55:29;;;;;;;5.50;1.45;;;10.30;99.90;;;;;;5054803;28;20475;-85
2022/11/03 06:58:03;;;;;;;4.68;2.00;;;10.30;99.90;;;;;;5056013;28;20045;-84
2022/11/03 07:00:30;;;;;;;7.47;2.08;;;10.40;99.90;;;;;;5053758;28;20041;-84
2022/11/03 07:03:11;;;;;;;5.25;0.95;;;10.40;99.90;;;;;;5054303;28;20448;-84
2022/11/03 07:05:37;;;;;;;3.50;1.63;;;10.40;99.90;;;;;;5055110;28;20045;-84
2022/11/03 07:08:19;;;;;;;5.72;1.92;;;10.50;99.90;;;;;;5038299;28;20067;-85
2022/11/03 07:10:44;;;;;;;9.25;1.92;;;9.70;99.90;;;;;;5055067;28;20037;-85
2022/11/03 07:13:17;;;;;;;8.02;1.30;;;10.50;99.90;;;;;;5056139;28;20052;-85
2022/11/03 07:15:44;;;;;;;2.92;1.20;;;10.40;99.90;;;;;;5055312;28;20491;-85
2022/11/03 07:18:24;;;;;;;11.38;2.42;;;10.60;99.90;;;;;;5055494;28;20481;-84
2022/11/03 07:20:52;;;;;;;6.20;1.50;;;10.60;99.90;;;;;;5054401;28;20052;-85
2022/11/03 07:23:23;;;;;;;5.40;1.30;;;10.70;99.90;;;;;;5054563;28;20045;-85
2022/11/03 07:25:56;;;;;;;6.57;1.20;;;10.70;99.90;;;;;;5054438;28;20047;-85
2022/11/03 07:28:35;;;;;;;3.15;1.50;;;10.70;99.90;;;;;;5054152;28;20048;-82
2022/11/03 07:31:09;;;;;;;2.45;1.02;;;10.80;99.90;;;;;;5053377;28;20520;-82
2022/11/03 07:33:35;;;;;;;4.50;1.25;;;10.90;99.90;;;;;;5053949;28;20048;-82
2022/11/03 07:36:00;;;;;;;6.30;1.67;;;9.90;99.90;;;;;;5052683;28;20957;-82
2022/11/03 07:38:28;;;;;;;4.90;1.42;;;10.90;99.90;;;;;;5034797;28;20487;-82
2022/11/03 07:40:57;;;;;;;6.35;2.00;;;11.00;99.90;;;;;;5052315;28;20052;-82
2022/11/03 07:43:31;;;;;;;5.95;1.65;;;11.00;99.90;;;;;;5035948;28;20052;-82
2022/11/03 07:46:02;;;;;;;6.05;1.40;;;11.00;99.90;;;;;;5032310;28;20191;-82
2022/11/03 07:48:34;;;;;;;2.70;1.30;;;11.10;99.90;;;;;;5035240;28;20128;-82
2022/11/03 07:51:11;;;;;;;4.50;1.35;;;11.10;99.90;;;;;;5052553;28;20202;-81
2022/11/03 07:53:41;;;;;;;;;;;11.20;99.90;;;;;;5053229;28;20067;-82
2022/11/03 07:56:38;;;;;;;3.08;1.58;;;11.10;99.90;;;;;;5051729;28;19923;-82
2022/11/03 07:59:29;;;;;;;9.85;1.70;;;11.20;99.90;;;;;;5052498;28;20051;-82
2022/11/03 08:01:57;;;;;;;10.00;1.60;;;11.30;99.90;;;;;;5051822;28;20124;-82
2022/11/03 08:04:34;;;;;;;5.10;2.00;;;11.30;99.90;;;;;;5052309;28;20102;-82
2022/11/03 08:07:00;;;;;;;5.50;2.10;;;11.40;99.90;;;;;;5051558;28;20032;-81
2022/11/03 08:09:26;;;;;;;5.85;1.50;;;11.50;99.90;;;;;;5035616;28;20052;-82
2022/11/03 08:11:52;;;;;;;9.73;1.80;;;11.60;99.90;;;;;;5008940;28;20124;-82
2022/11/03 08:14:19;;;;;;;4.70;1.30;;;11.60;99.90;;;;;;5048559;28;20049;-82
2022/11/03 08:16:44;;;;;;;2.15;0.98;;;11.80;99.90;;;;;;5063423;28;20079;-85
2022/11/03 08:19:10;;;;;;;5.10;1.38;;;12.10;99.90;;;;;;5035990;28;20479;-86
2022/11/03 08:21:36;;;;;;;4.07;1.17;;;12.20;99.90;;;;;;5051616;28;20498;-86
2022/11/03 08:24:02;;;;;;;5.78;1.50;;;12.50;99.90;;;;;;5019152;28;20040;-82
2022/11/03 08:26:28;;;;;;;3.47;1.23;;;12.60;99.90;;;;;;5052047;28;20045;-81
2022/11/03 08:28:53;;;;;;;3.45;1.45;;;12.80;99.90;;;;;;5051761;28;20411;-82
2022/11/03 08:31:19;;;;;;;4.88;1.60;;;13.20;99.90;;;;;;5051560;28;20128;-82
2022/11/03 08:33:45;;;;;;;3.08;1.50;;;13.20;99.90;;;;;;5051748;28;20044;-85
2022/11/03 08:36:11;;;;;;;2.83;1.40;;;13.50;99.90;;;;;;5051560;28;20037;-86
2022/11/03 08:38:37;;;;;;;9.02;1.67;;;13.70;99.90;;;;;;5035061;28;20095;-85
2022/11/03 08:41:03;;;;;;;6.55;1.40;;;14.00;99.90;;;;;;5052104;28;20041;-86
2022/11/03 08:43:29;;;;;;;3.20;1.45;;;14.20;99.90;;;;;;5045493;28;20045;-86
2022/11/03 08:45:55;;;;;;;6.57;1.65;;;14.10;99.90;;;;;;5032862;28;20065;-86
2022/11/03 08:48:22;;;;;;;6.35;2.00;;;14.20;99.90;;;;;;5019616;28;20041;-86
2022/11/03 08:50:53;;;;;;;8.10;2.03;;;14.30;99.90;;;;;;5052928;28;20049;-82
2022/11/03 08:53:19;;;;;;;6.78;2.00;;;14.20;99.90;;;;;;5035347;28;20098;-82
2022/11/03 08:55:45;;;;;;;5.00;1.50;;;14.10;99.90;;;;;;5052134;28;20130;-82
2022/11/03 08:58:11;;;;;;;3.50;1.20;;;13.90;99.90;;;;;;5052218;28;20494;-82
2022/11/03 09:00:36;;;;;;;3.72;1.27;;;13.70;99.90;;;;;;5051890;28;20112;-82
2022/11/03 09:03:02;;;;;;;6.80;1.25;;;13.70;99.90;;;;;;5035219;28;20124;-82
2022/11/03 09:05:28;;;;;;;6.38;1.65;;;13.70;99.90;;;;;;5052908;28;20187;-82
2022/11/03 09:07:54;;;;;;;5.68;1.45;;;13.70;99.90;;;;;;5056065;28;20049;-83
2022/11/03 09:10:19;;;;;;;4.10;1.50;;;13.70;99.90;;;;;;5037940;28;20094;-83
2022/11/03 09:12:48;;;;;;;4.25;1.45;;;13.90;99.90;;;;;;5046566;28;20098;-83
2022/11/03 09:15:14;;;;;;;5.43;1.90;;;14.00;99.90;;;;;;5039490;28;20053;-83
2022/11/03 09:17:39;;;;;;;3.45;1.38;;;14.10;99.90;;;;;;5055507;28;20036;-83
2022/11/03 09:20:09;;;;;;;7.05;1.50;;;14.10;99.90;;;;;;5039083;28;20033;-83
2022/11/03 09:22:35;;;;;;;4.60;1.55;;;14.10;99.90;;;;;;5055657;28;20449;-83
2022/11/03 09:25:00;;;;;;;5.82;1.50;;;14.00;99.90;;;;;;5038981;28;20037;-82
2022/11/03 09:27:26;;;;;;;7.10;1.48;;;14.10;99.90;;;;;;5022599;28;20083;-82
2022/11/03 09:29:52;;;;;;;5.05;1.63;;;14.10;99.90;;;;;;5038156;28;20041;-82
2022/11/03 09:32:18;;;;;;;6.57;1.85;;;14.10;99.90;;;;;;5038266;28;20052;-82
2022/11/03 09:34:44;;;;;;;8.13;1.52;;;14.10;99.90;;;;;;5035610;28;20041;-82
2022/11/03 09:37:09;;;;;;;4.82;1.88;;;14.00;99.90;;;;;;5019359;28;20379;-82
2022/11/03 09:39:35;;;;;;;4.38;1.48;;;14.00;99.90;;;;;;5046448;28;20047;-82
2022/11/03 09:42:03;;;;;;;11.20;2.00;;;14.00;99.90;;;;;;5038535;28;20124;-86
2022/11/03 09:44:33;;;;;;;5.90;1.25;;;13.90;99.90;;;;;;5038753;28;20048;-85
2022/11/03 09:46:59;;;;;;;3.67;1.00;;;14.10;99.90;;;;;;5053878;28;20048;-86
2022/11/03 09:49:27;;;;;;;4.47;1.27;;;14.10;99.90;;;;;;5038318;28;20460;-86
2022/11/03 09:51:54;;;;;;;4.30;1.42;;;14.10;99.90;;;;;;5067103;28;20044;-86
2022/11/03 09:54:20;;;;;;;5.25;1.75;;;14.10;99.90;;;;;;5037802;28;20048;-86
2022/11/03 09:56:46;;;;;;;4.75;1.45;;;14.20;99.90;;;;;;5032578;28;20036;-87
2022/11/03 09:59:20;;;;;;;2.25;1.05;;;14.10;99.90;;;;;;5038285;28;20048;-84
2022/11/03 10:01:49;;;;;;;2.17;1.02;;;14.40;99.90;;;;;;5053522;28;20037;-85
2022/11/03 10:04:35;;;;;;;6.20;1.65;;;14.40;99.90;;;;;;5055090;28;20041;-84
2022/11/03 10:07:01;;;;;;;6.90;1.10;;;14.30;99.90;;;;;;5048827;28;20549;-85
2022/11/03 10:09:28;;;;;;;3.95;1.85;;;14.30;99.90;;;;;;5037906;28;20045;-85
2022/11/03 10:11:54;;;;;;;4.70;1.30;;;14.30;99.90;;;;;;5036901;28;20098;-84
2022/11/03 10:14:21;;;;;;;4.05;0.98;;;14.30;99.90;;;;;;5045681;28;20061;-83
2022/11/03 10:17:00;;;;;;;6.15;1.52;;;14.10;99.90;;;;;;5068563;28;20060;-82
2022/11/03 10:19:26;;;;;;;2.90;1.38;;;14.10;99.90;;;;;;5023897;28;20094;-82
2022/11/03 10:21:52;;;;;;;3.63;1.15;;;14.10;99.90;;;;;;5059686;28;20037;-82
2022/11/03 10:24:18;;;;;;;4.65;1.23;;;14.10;99.90;;;;;;5024698;28;20036;-82
2022/11/03 10:26:49;;;;;;;5.90;1.45;;;14.10;99.90;;;;;;5056101;28;20051;-82
2022/11/03 10:29:23;;;;;;;3.72;1.40;;;14.10;99.90;;;;;;5073721;22;20482;-83
2022/11/03 10:31:52;;;;;;;4.43;1.20;;;14.10;99.90;;;;;;5077154;28;20040;-80
2022/11/03 10:34:34;;;;;;;5.45;1.83;;;14.10;99.90;;;;;;5076864;28;20040;-79
2022/11/03 10:37:16;;;;;;;6.07;1.42;;;14.10;99.90;;;;;;5076103;28;20036;-79
2022/11/03 10:39:46;;;;;;;2.67;1.23;;;14.20;99.90;;;;;;5078153;28;20040;-79
2022/11/03 10:42:28;;;;;;;5.32;1.67;;;14.20;99.90;;;;;;5076991;28;20413;-80
2022/11/03 10:45:18;;;;;;;4.93;2.60;;;14.30;99.90;;;;;;5060421;28;20040;-80
2022/11/03 10:47:58;;;;;;;4.55;1.45;;;14.40;99.90;;;;;;5053537;28;20035;-83
2022/11/03 10:50:26;;;;;;;4.43;1.30;;;14.50;99.90;;;;;;5058081;28;20040;-83
2022/11/03 10:52:52;;;;;;;6.07;1.25;;;14.50;99.90;;;;;;5076729;28;20040;-83
2022/11/03 10:55:20;;;;;;;7.95;2.15;;;14.60;99.90;;;;;;5060195;28;20048;-83
2022/11/03 10:57:45;;;;;;;1.75;1.02;;;14.70;99.90;;;;;;5040227;28;20066;-83
2022/11/03 11:00:16;;;;;;;4.45;1.25;;;14.80;99.90;;;;;;5065500;28;20032;-83
2022/11/03 11:02:45;;;;;;;2.85;1.27;;;14.90;99.90;;;;;;5058473;28;20561;-83
2022/11/03 11:05:21;;;;;;;2.17;1.17;;;14.90;99.90;;;;;;5069182;28;20035;-83
2022/11/03 11:07:50;;;;;;;2.55;1.40;;;14.90;99.90;;;;;;5059022;28;20402;-83
2022/11/03 11:10:21;;;;;;;6.82;1.60;;;14.90;99.90;;;;;;5040526;28;20469;-83
2022/11/03 11:13:24;;;;;;;3.10;1.45;;;14.90;99.90;;;;;;5056932;28;20036;-83
2022/11/03 11:15:56;;;;;;;3.60;1.55;;;14.90;99.90;;;;;;5056950;28;20048;-83
2022/11/03 11:18:28;;;;;;;2.08;1.17;;;14.90;99.90;;;;;;5075225;28;20389;-83
2022/11/03 11:20:58;;;;;;;2.53;1.10;;;14.90;99.90;;;;;;5076307;28;20036;-82
2022/11/03 11:23:27;;;;;;;6.05;2.28;;;15.00;99.90;;;;;;5052219;28;20067;-82
2022/11/03 11:26:08;;;;;;;5.45;1.38;;;15.10;99.90;;;;;;5064561;28;20070;-82
2022/11/03 11:28:35;;;;;;;4.03;1.40;;;15.30;99.90;;;;;;5075848;28;20162;-82
2022/11/03 11:31:01;;;;;;;6.22;1.55;;;15.50;99.90;;;;;;5059782;28;20058;-82
2022/11/03 11:33:30;;;;;;;9.68;1.23;;;15.50;99.90;;;;;;5076338;28;20039;-82
2022/11/03 11:35:56;;;;;;;4.93;1.40;;;15.70;99.90;;;;;;5076336;28;20105;-83
2022/11/03 11:38:59;;;;;;;6.35;1.42;;;15.70;99.90;;;;;;5059457;28;20486;-82
2022/11/03 11:42:02;;;;;;;1.98;0.88;;;15.80;99.90;;;;;;5075908;28;20043;-83
2022/11/03 11:44:53;;;;;;;3.08;0.90;;;15.70;99.90;;;;;;5067906;28;20574;-83
2022/11/03 11:47:42;;;;;;;3.90;1.70;;;15.70;99.90;;;;;;5070063;28;20045;-83
2022/11/03 11:50:10;;;;;;;3.05;1.23;;;15.60;99.90;;;;;;5068463;28;20040;-83
2022/11/03 11:52:49;;;;;;;3.83;1.30;;;15.60;99.90;;;;;;5055556;28;20515;-83
2022/11/03 11:55:38;;;;;;;4.90;1.25;;;15.70;99.90;;;;;;5069743;28;20048;-80
2022/11/03 11:58:12;;;;;;;6.43;1.30;;;15.70;99.90;;;;;;5060343;28;20130;-80
2022/11/03 12:00:59;;;;;;;2.97;1.02;;;15.60;99.90;;;;;;5075633;28;20075;-80
2022/11/03 12:03:28;;;;;;;3.83;1.30;;;15.50;99.90;;;;;;5075543;28;20035;-80
2022/11/03 12:05:54;;;;;;;3.67;1.38;;;15.50;99.90;;;;;;5074537;28;20482;-80
2022/11/03 12:08:27;;;;;;;1.70;1.20;;;15.60;99.90;;;;;;5072428;28;20089;-80
2022/11/03 12:11:04;;;;;;;4.03;1.30;;;15.60;99.90;;;;;;5039044;28;20127;-83
2022/11/03 12:13:52;;;;;;;4.93;1.92;;;15.50;99.90;;;;;;5055542;28;20033;-83
2022/11/03 12:16:34;;;;;;;4.35;1.38;;;15.50;99.90;;;;;;5072314;28;20044;-83
2022/11/03 12:19:38;;;;;;;2.20;1.10;;;15.50;99.90;;;;;;5042468;28;20127;-83
2022/11/03 12:22:09;;;;;;;3.10;1.30;;;15.40;99.90;;;;;;5058702;28;20036;-83
2022/11/03 12:24:47;;;;;;;4.20;0.98;;;15.40;99.90;;;;;;5058911;28;20112;-83
2022/11/03 12:27:23;;;;;;;3.75;1.25;;;15.30;99.90;;;;;;5055329;28;20036;-83
2022/11/03 12:29:50;;;;;;;;;;;15.20;99.90;;;;;;5056028;28;20063;-83
2022/11/03 12:32:16;;;;;;;4.00;1.40;;;15.30;99.90;;;;;;5038955;28;19922;-83
2022/11/03 12:34:41;;;;;;;2.55;1.05;;;15.30;99.90;;;;;;5043139;28;20393;-83
2022/11/03 12:37:07;;;;;;;3.88;1.00;;;15.30;99.90;;;;;;5057096;28;20048;-83
2022/11/03 12:39:33;;;;;;;3.30;1.27;;;15.30;99.90;;;;;;5055460;28;20056;-83
2022/11/03 12:42:00;;;;;;;2.25;1.00;;;15.30;99.90;;;;;;5041572;28;20044;-83
2022/11/03 12:44:26;;;;;;;4.60;1.90;;;15.30;99.90;;;;;;5026362;28;20401;-80
2022/11/03 12:46:51;;;;;;;3.08;1.15;;;15.20;99.90;;;;;;5071734;28;20040;-80
2022/11/03 12:49:17;;;;;;;4.13;1.45;;;15.30;99.90;;;;;;5079002;28;20517;-80
2022/11/03 12:51:43;;;;;;;2.97;1.55;;;15.30;99.90;;;;;;5078881;28;20040;-80
2022/11/03 12:54:08;;;;;;;3.08;1.10;;;15.30;99.90;;;;;;5079212;28;20108;-80
2022/11/03 12:56:34;;;;;;;4.07;1.42;;;15.40;99.90;;;;;;5079324;28;20044;-80
2022/11/03 12:59:00;;;;;;;3.60;1.42;;;15.40;99.90;;;;;;5079129;28;20417;-80
2022/11/03 13:01:25;;;;;;;4.95;1.75;;;15.40;99.90;;;;;;5078976;28;20550;-80
2022/11/03 13:03:51;;;;;;;3.35;1.30;;;15.40;99.90;;;;;;5079083;28;20065;-80
2022/11/03 13:06:17;;;;;;;5.18;1.20;;;15.40;99.90;;;;;;5062536;28;20101;-80
2022/11/03 13:08:43;;;;;;;5.80;1.33;;;15.50;99.90;;;;;;5078983;28;20044;-80
2022/11/03 13:13:53;;;;;;;2.00;1.17;;;15.50;99.90;;;;;;5064711;28;20032;-80
2022/11/03 13:16:19;;;;;;;3.80;1.30;;;15.40;99.90;;;;;;5061944;28;20048;-80
2022/11/03 13:18:45;;;;;;;2.30;1.20;;;15.30;99.90;;;;;;5045544;28;20429;-83
2022/11/03 13:21:12;;;;;;;10.80;1.50;;;15.30;99.90;;;;;;5078573;28;20040;-83
2022/11/03 13:23:38;;;;;;;5.28;1.73;;;15.20;99.90;;;;;;5078552;28;20063;-83
2022/11/03 13:26:04;;;;;;;4.82;1.15;;;15.20;99.90;;;;;;5078581;28;20044;-83